Hershey, Pennsylvania
Current Conditions -  °F | °C
As of 11:56 AM on Monday 22 Dec 2014 (Local Time) from KMDT Reporting Station
Haze Haze  
Wind Chill: 26°   Ceiling: 2000
Heat Index: 32°   Visibility: 6mi
Dew Point: 25°   Wind: 6mph
Humidity: 75%   Direction: 290°WNW
Pressure: 30.27"   Gusts: NA
Location:  40.29°N, 76.65°W
Report Text: KMDT 221656Z 29005KT 6SM HZ BKN020 OVC039 00/M04 A3027 RMK AO2 SLP255 T00001039
Loading
Personal Weather Stations






























Interactive Weather Map New forecast layout! Learn more

10-Day Weather Forecast

Advertisements
Track Severe Weather on mobile